createdAt,value
2022-12-11T00:00:11.042Z,54.62
2022-12-11T00:01:15.133Z,54.78
2022-12-11T00:02:19.446Z,54.78
2022-12-11T00:03:23.866Z,54.76
2022-12-11T00:04:28.004Z,54.98
2022-12-11T00:05:32.075Z,54.97
2022-12-11T00:06:36.146Z,54.71
2022-12-11T00:07:40.229Z,54.91
2022-12-11T00:08:44.276Z,54.82
2022-12-11T00:09:48.362Z,54.76
2022-12-11T00:10:52.498Z,55.05
2022-12-11T00:11:56.575Z,54.86
2022-12-11T00:13:00.635Z,54.93
2022-12-11T00:14:04.739Z,54.84
2022-12-11T00:15:10.200Z,54.96
2022-12-11T00:16:14.662Z,55.21
2022-12-11T00:17:18.748Z,55.54
2022-12-11T00:18:22.801Z,54.79
2022-12-11T00:19:26.875Z,56.09
2022-12-11T00:20:30.947Z,55.38
2022-12-11T00:21:35.050Z,55.12
2022-12-11T00:22:39.121Z,55.17
2022-12-11T00:23:43.183Z,55.23
2022-12-11T00:24:47.249Z,55.3
2022-12-11T00:25:51.356Z,55.45
2022-12-11T00:26:55.434Z,55.31
2022-12-11T00:27:59.565Z,55.28
2022-12-11T00:29:03.644Z,55.13
2022-12-11T00:30:07.708Z,55.04
2022-12-11T00:31:11.769Z,54.93
2022-12-11T00:32:16.022Z,54.74
2022-12-11T00:33:20.149Z,54.78
2022-12-11T00:34:24.208Z,54.73
2022-12-11T00:35:28.281Z,54.55
2022-12-11T00:36:32.358Z,54.49
2022-12-11T00:37:36.629Z,54.4
2022-12-11T00:38:40.818Z,54.34
2022-12-11T00:39:44.898Z,54.46
2022-12-11T00:40:48.953Z,54.2
2022-12-11T00:41:53.054Z,54.14
2022-12-11T00:42:57.120Z,54.13
2022-12-11T00:44:01.178Z,54.04
2022-12-11T00:45:05.245Z,53.96
2022-12-11T00:46:09.792Z,54.06
2022-12-11T00:47:13.876Z,53.87
2022-12-11T00:48:17.927Z,53.49
2022-12-11T00:49:22.006Z,53.44
2022-12-11T00:50:26.100Z,53.63
2022-12-11T00:51:30.197Z,53.52
2022-12-11T00:52:34.268Z,53.56
2022-12-11T00:53:38.338Z,53.86
2022-12-11T00:54:42.418Z,53.95
2022-12-11T00:55:46.470Z,53.65
2022-12-11T00:56:50.552Z,53.58
2022-12-11T00:57:54.639Z,53.73
2022-12-11T00:58:58.725Z,53.76
2022-12-11T01:00:02.925Z,53.87
2022-12-11T01:01:07.209Z,53.86
2022-12-11T01:02:11.388Z,53.77
2022-12-11T01:03:15.890Z,53.79
2022-12-11T01:04:19.985Z,53.87
2022-12-11T01:05:24.064Z,53.91
2022-12-11T01:06:28.321Z,53.93
2022-12-11T01:07:32.408Z,53.93
2022-12-11T01:08:40.612Z,53.96
2022-12-11T01:09:44.733Z,53.99
2022-12-11T01:10:49.019Z,54.07
2022-12-11T01:11:53.203Z,54.13
2022-12-11T01:12:57.269Z,54.06
2022-12-11T01:14:01.337Z,54.04
2022-12-11T01:15:05.454Z,53.98
2022-12-11T01:16:09.539Z,53.97
2022-12-11T01:17:13.617Z,53.95
2022-12-11T01:18:17.667Z,54
2022-12-11T01:19:21.719Z,53.97
2022-12-11T01:20:25.774Z,54.08
2022-12-11T01:21:29.856Z,54.12
2022-12-11T01:22:33.954Z,54.27
2022-12-11T01:23:38.035Z,54.39
2022-12-11T01:24:42.140Z,54.48
2022-12-11T01:25:46.196Z,54.39
2022-12-11T01:26:50.259Z,54.28
2022-12-11T01:27:54.362Z,54.44
2022-12-11T01:28:58.444Z,54.56
2022-12-11T01:30:02.504Z,54.51
2022-12-11T01:31:06.853Z,54.66
2022-12-11T01:32:10.924Z,54.69
2022-12-11T01:33:15.006Z,54.79
2022-12-11T01:34:19.078Z,54.72
2022-12-11T01:35:23.146Z,54.7
2022-12-11T01:36:27.213Z,54.79
2022-12-11T01:37:31.278Z,54.71
2022-12-11T01:38:35.375Z,54.62
2022-12-11T01:39:39.441Z,54.73
2022-12-11T01:40:49.049Z,54.74
2022-12-11T01:41:53.107Z,54.81
2022-12-11T01:42:57.184Z,54.77
2022-12-11T01:44:01.274Z,54.99
2022-12-11T01:45:05.341Z,54.88
2022-12-11T01:46:09.619Z,54.9
2022-12-11T01:47:13.707Z,54.98
2022-12-11T01:48:17.866Z,55.04
2022-12-11T01:49:21.942Z,55.06
2022-12-11T01:50:26.041Z,55.06
2022-12-11T01:51:30.191Z,55.1
2022-12-11T01:52:34.267Z,55.01
2022-12-11T01:53:38.355Z,55.11
2022-12-11T01:54:42.472Z,55.16
2022-12-11T01:55:46.588Z,55.17
2022-12-11T01:56:50.667Z,55.06
2022-12-11T01:57:54.721Z,55.09
2022-12-11T01:58:58.778Z,55.23
2022-12-11T02:00:02.895Z,55.45
2022-12-11T02:01:07.248Z,55.45
2022-12-11T02:02:11.560Z,55.19
2022-12-11T02:03:15.680Z,55.21
2022-12-11T02:04:19.755Z,55.27
2022-12-11T02:05:23.839Z,55.32
2022-12-11T02:06:27.914Z,55.49
2022-12-11T02:07:32.005Z,55.53
2022-12-11T02:08:36.090Z,55.57
2022-12-11T02:09:40.144Z,55.65
2022-12-11T02:10:44.218Z,55.67
2022-12-11T02:11:48.288Z,55.89
2022-12-11T02:12:52.356Z,55.83
2022-12-11T02:13:56.439Z,55.92
2022-12-11T02:15:00.513Z,55.76
2022-12-11T02:16:04.760Z,56.03
2022-12-11T02:17:08.843Z,55.76
2022-12-11T02:18:12.924Z,55.92
2022-12-11T02:19:16.995Z,55.72
2022-12-11T02:20:21.055Z,55.8
2022-12-11T02:21:25.141Z,55.74
2022-12-11T02:22:29.226Z,55.87
2022-12-11T02:23:33.284Z,55.82
2022-12-11T02:24:37.373Z,55.98
2022-12-11T02:25:41.443Z,55.96
2022-12-11T02:26:45.525Z,55.89
2022-12-11T02:27:49.592Z,55.91
2022-12-11T02:28:53.644Z,55.97
2022-12-11T02:29:57.706Z,55.88
2022-12-11T02:31:02.055Z,55.91
2022-12-11T02:32:06.180Z,55.9
2022-12-11T02:33:10.309Z,55.78
2022-12-11T02:34:14.364Z,56.12
2022-12-11T02:35:18.445Z,55.95
2022-12-11T02:36:22.519Z,55.86
2022-12-11T02:37:26.616Z,55.82
2022-12-11T02:38:30.753Z,55.74
2022-12-11T02:39:34.832Z,55.63
2022-12-11T02:40:38.912Z,55.72
2022-12-11T02:41:43.060Z,55.86
2022-12-11T02:42:47.225Z,55.85
2022-12-11T02:43:51.304Z,56.02
2022-12-11T02:44:55.374Z,55.79
2022-12-11T02:45:59.659Z,55.9
2022-12-11T02:47:03.738Z,56.26
2022-12-11T02:48:07.807Z,55.88
2022-12-11T02:49:11.897Z,56.01
2022-12-11T02:50:15.960Z,55.91
2022-12-11T02:51:20.020Z,55.88
2022-12-11T02:52:24.121Z,55.82
2022-12-11T02:53:28.200Z,56.18
2022-12-11T02:54:32.324Z,55.9
2022-12-11T02:55:36.410Z,55.79
2022-12-11T02:56:40.479Z,55.89
2022-12-11T02:57:44.569Z,55.93
2022-12-11T02:58:50.676Z,55.81
2022-12-11T02:59:56.721Z,55.93
2022-12-11T03:01:01.035Z,55.9
2022-12-11T03:02:05.361Z,55.9
2022-12-11T03:03:09.477Z,55.81
2022-12-11T03:04:13.552Z,55.91
2022-12-11T03:05:17.649Z,55.81
2022-12-11T03:06:21.726Z,55.88
2022-12-11T03:07:25.805Z,55.87
2022-12-11T03:08:30.109Z,56.07
2022-12-11T03:09:34.216Z,56.02
2022-12-11T03:10:38.315Z,56.15
2022-12-11T03:11:42.423Z,55.72
2022-12-11T03:12:54.286Z,56
2022-12-11T03:13:58.359Z,55.98
2022-12-11T03:15:02.447Z,56.02
2022-12-11T03:16:06.719Z,55.95
2022-12-11T03:17:10.821Z,55.82
2022-12-11T03:18:14.883Z,55.77
2022-12-11T03:19:18.981Z,55.65
2022-12-11T03:20:23.059Z,55.54
2022-12-11T03:21:27.129Z,55.42
2022-12-11T03:22:31.209Z,55.41
2022-12-11T03:23:35.325Z,55.31
2022-12-11T03:24:39.407Z,55.31
2022-12-11T03:25:43.544Z,55.17
2022-12-11T03:26:47.691Z,55.21
2022-12-11T03:27:51.769Z,55.17
2022-12-11T03:28:55.829Z,55.15
2022-12-11T03:29:59.908Z,55.11
2022-12-11T03:31:04.352Z,55
2022-12-11T03:32:08.504Z,54.87
2022-12-11T03:33:12.563Z,54.95
2022-12-11T03:34:16.645Z,54.92
2022-12-11T03:35:20.754Z,54.84
2022-12-11T03:36:24.833Z,54.7
2022-12-11T03:37:28.892Z,54.73
2022-12-11T03:38:33.084Z,54.65
2022-12-11T03:39:37.157Z,54.64
2022-12-11T03:40:41.250Z,54.6
2022-12-11T03:41:45.306Z,54.63
2022-12-11T03:42:49.381Z,54.51
2022-12-11T03:43:53.461Z,54.51
2022-12-11T03:44:57.510Z,54.44
2022-12-11T03:46:01.801Z,54.41
2022-12-11T03:47:05.922Z,54.32
2022-12-11T03:48:09.988Z,54.31
2022-12-11T03:49:14.052Z,54.24
2022-12-11T03:50:18.127Z,54.24
2022-12-11T03:51:22.229Z,54.23
2022-12-11T03:52:26.292Z,54.25
2022-12-11T03:53:30.375Z,54.24
2022-12-11T03:54:34.422Z,54.22
2022-12-11T03:55:38.498Z,54.3
2022-12-11T03:56:42.627Z,54.29
2022-12-11T03:57:46.729Z,54.25
2022-12-11T03:58:50.799Z,54.3
2022-12-11T03:59:54.891Z,54.32
2022-12-11T04:00:58.958Z,54.35
2022-12-11T04:02:03.433Z,54.31
2022-12-11T04:03:15.495Z,54.39
2022-12-11T04:04:19.813Z,54.32
2022-12-11T04:05:23.902Z,54.4
2022-12-11T04:06:27.965Z,54.41
2022-12-11T04:07:32.046Z,54.41
2022-12-11T04:08:36.125Z,54.39
2022-12-11T04:09:40.169Z,54.35
2022-12-11T04:10:44.224Z,54.38
2022-12-11T04:11:48.271Z,54.24
2022-12-11T04:12:52.348Z,54.14
2022-12-11T04:13:56.418Z,54.25
2022-12-11T04:15:00.520Z,54.17
2022-12-11T04:16:04.765Z,54.11
2022-12-11T04:17:08.848Z,54.09
2022-12-11T04:18:12.932Z,54.01
2022-12-11T04:19:16.989Z,53.95
2022-12-11T04:20:21.076Z,53.93
2022-12-11T04:21:25.141Z,53.9
2022-12-11T04:22:29.195Z,53.84
2022-12-11T04:23:33.277Z,53.86
2022-12-11T04:24:37.364Z,53.87
2022-12-11T04:25:41.428Z,53.89
2022-12-11T04:26:45.510Z,53.88
2022-12-11T04:27:49.602Z,53.86
2022-12-11T04:28:53.693Z,53.93
2022-12-11T04:29:57.767Z,53.91
2022-12-11T04:31:02.052Z,53.94
2022-12-11T04:32:06.140Z,53.96
2022-12-11T04:33:10.219Z,53.98
2022-12-11T04:34:14.295Z,54
2022-12-11T04:35:18.400Z,53.99
2022-12-11T04:36:22.485Z,54.01
2022-12-11T04:37:26.542Z,54.09
2022-12-11T04:38:30.613Z,54.08
2022-12-11T04:39:34.701Z,54.08
2022-12-11T04:40:38.787Z,54
2022-12-11T04:41:42.849Z,53.96
2022-12-11T04:42:46.915Z,53.93
2022-12-11T04:43:51.004Z,53.9
2022-12-11T04:44:55.097Z,53.9
2022-12-11T04:45:59.280Z,53.82
2022-12-11T04:47:03.362Z,53.73
2022-12-11T04:48:07.442Z,53.72
2022-12-11T04:49:11.526Z,53.66
2022-12-11T04:50:15.640Z,53.64
2022-12-11T04:51:19.729Z,53.55
2022-12-11T04:52:23.798Z,53.56
2022-12-11T04:53:27.870Z,53.58
2022-12-11T04:54:31.933Z,53.64
2022-12-11T04:55:36.031Z,53.64
2022-12-11T04:56:40.163Z,53.67
2022-12-11T04:57:44.246Z,53.65
2022-12-11T04:58:48.313Z,53.73
2022-12-11T04:59:52.388Z,53.7
2022-12-11T05:00:56.485Z,53.73
2022-12-11T05:02:00.803Z,53.77
2022-12-11T05:03:05.032Z,53.74
2022-12-11T05:04:09.102Z,53.82
2022-12-11T05:05:14.529Z,53.82
2022-12-11T05:06:18.788Z,53.78
2022-12-11T05:07:22.906Z,53.75
2022-12-11T05:08:27.199Z,53.73
2022-12-11T05:09:31.264Z,53.7
2022-12-11T05:10:35.336Z,53.65
2022-12-11T05:11:39.512Z,53.7
2022-12-11T05:12:43.567Z,53.63
2022-12-11T05:13:47.637Z,53.59
2022-12-11T05:14:51.696Z,53.57
2022-12-11T05:15:56.111Z,53.49
2022-12-11T05:17:00.230Z,53.41
2022-12-11T05:18:04.463Z,53.4
2022-12-11T05:19:08.539Z,53.39
2022-12-11T05:20:12.610Z,53.33
2022-12-11T05:21:16.681Z,53.31
2022-12-11T05:22:20.765Z,53.16
2022-12-11T05:23:24.821Z,53.08
2022-12-11T05:24:28.872Z,53.03
2022-12-11T05:25:32.973Z,53.03
2022-12-11T05:26:37.048Z,53.02
2022-12-11T05:27:41.174Z,52.99
2022-12-11T05:28:45.253Z,53.06
2022-12-11T05:29:49.325Z,53.01
2022-12-11T05:30:53.606Z,53.12
2022-12-11T05:31:57.712Z,53.13
2022-12-11T05:33:01.804Z,53.13
2022-12-11T05:34:05.885Z,53.16
2022-12-11T05:35:11.285Z,53.23
2022-12-11T05:36:15.561Z,53.21
2022-12-11T05:37:19.653Z,53.23
2022-12-11T05:38:23.757Z,53.25
2022-12-11T05:39:27.839Z,53.28
2022-12-11T05:40:31.925Z,53.27
2022-12-11T05:41:36.049Z,53.35
2022-12-11T05:42:40.107Z,53.33
2022-12-11T05:43:44.210Z,53.35
2022-12-11T05:44:48.288Z,53.34
2022-12-11T05:45:52.364Z,53.27
2022-12-11T05:46:56.785Z,53.19
2022-12-11T05:48:00.882Z,53.14
2022-12-11T05:49:04.954Z,53.16
2022-12-11T05:50:09.046Z,53.14
2022-12-11T05:51:13.129Z,53.11
2022-12-11T05:52:17.187Z,53.08
2022-12-11T05:53:21.277Z,53.01
2022-12-11T05:54:25.384Z,52.95
2022-12-11T05:55:29.472Z,52.9
2022-12-11T05:56:33.583Z,52.8
2022-12-11T05:57:37.651Z,52.79
2022-12-11T05:58:41.706Z,52.78
2022-12-11T05:59:45.796Z,52.76
2022-12-11T06:00:49.902Z,52.76
2022-12-11T06:01:54.382Z,52.81
2022-12-11T06:02:58.926Z,52.79
2022-12-11T06:04:03.036Z,52.82
2022-12-11T06:05:07.135Z,52.78
2022-12-11T06:06:11.192Z,52.84
2022-12-11T06:07:15.281Z,52.91
2022-12-11T06:08:19.587Z,52.92
2022-12-11T06:09:23.709Z,52.93
2022-12-11T06:10:27.773Z,52.91
2022-12-11T06:11:31.860Z,52.92
2022-12-11T06:12:35.937Z,53.01
2022-12-11T06:13:40.010Z,52.97
2022-12-11T06:14:44.075Z,52.96
2022-12-11T06:15:48.160Z,52.95
2022-12-11T06:16:52.483Z,52.91
2022-12-11T06:17:56.591Z,52.95
2022-12-11T06:19:00.779Z,52.94
2022-12-11T06:20:04.889Z,52.97
2022-12-11T06:21:09.012Z,52.95
2022-12-11T06:22:13.094Z,53.02
2022-12-11T06:23:17.179Z,53.09
2022-12-11T06:24:21.236Z,53.03
2022-12-11T06:25:25.333Z,53.06
2022-12-11T06:26:29.423Z,53.07
2022-12-11T06:27:33.494Z,53.07
2022-12-11T06:28:37.572Z,53.11
2022-12-11T06:29:41.624Z,53.11
2022-12-11T06:30:45.702Z,53.02
2022-12-11T06:31:50.033Z,53.05
2022-12-11T06:32:54.132Z,52.97
2022-12-11T06:33:58.220Z,52.95
2022-12-11T06:35:02.288Z,52.95
2022-12-11T06:36:06.558Z,52.88
2022-12-11T06:37:10.634Z,52.83
2022-12-11T06:38:14.713Z,52.83
2022-12-11T06:39:18.778Z,52.82
2022-12-11T06:40:22.859Z,52.77
2022-12-11T06:41:26.975Z,52.73
2022-12-11T06:42:31.056Z,52.62
2022-12-11T06:43:35.110Z,52.69
2022-12-11T06:44:39.174Z,52.67
2022-12-11T06:45:43.375Z,52.58
2022-12-11T06:46:47.470Z,52.64
2022-12-11T06:47:51.546Z,52.69
2022-12-11T06:48:55.592Z,52.67
2022-12-11T06:49:59.638Z,52.65
2022-12-11T06:51:03.751Z,52.67
2022-12-11T06:52:07.876Z,52.71
2022-12-11T06:53:11.981Z,52.7
2022-12-11T06:54:16.046Z,52.75
2022-12-11T06:55:20.116Z,52.79
2022-12-11T06:56:24.194Z,52.77
2022-12-11T06:57:28.274Z,52.79
2022-12-11T06:58:40.538Z,52.88
2022-12-11T06:59:44.731Z,52.88
2022-12-11T07:00:49.118Z,52.85
2022-12-11T07:01:53.412Z,52.76
2022-12-11T07:02:57.485Z,52.71
2022-12-11T07:04:01.559Z,52.67
2022-12-11T07:05:05.637Z,52.71
2022-12-11T07:06:09.705Z,52.65
2022-12-11T07:07:13.761Z,52.62
2022-12-11T07:08:18.060Z,52.61
2022-12-11T07:09:22.150Z,52.54
2022-12-11T07:10:26.215Z,52.51
2022-12-11T07:11:30.282Z,52.46
2022-12-11T07:12:34.350Z,52.48
2022-12-11T07:13:38.421Z,52.48
2022-12-11T07:14:42.527Z,52.44
2022-12-11T07:15:46.582Z,52.49
2022-12-11T07:16:50.814Z,52.52
2022-12-11T07:17:54.894Z,52.51
2022-12-11T07:18:58.944Z,52.55
2022-12-11T07:20:03.055Z,52.54
2022-12-11T07:21:07.111Z,52.58
2022-12-11T07:22:11.175Z,52.63
2022-12-11T07:23:15.253Z,52.69
2022-12-11T07:24:19.331Z,52.68
2022-12-11T07:25:23.460Z,52.71
2022-12-11T07:26:27.534Z,52.72
2022-12-11T07:27:31.606Z,52.71
2022-12-11T07:28:35.705Z,52.71
2022-12-11T07:29:39.791Z,52.71
2022-12-11T07:30:43.914Z,52.71
2022-12-11T07:31:48.161Z,52.63
2022-12-11T07:32:52.565Z,52.63
2022-12-11T07:33:56.687Z,52.6
2022-12-11T07:35:00.752Z,52.61
2022-12-11T07:36:04.857Z,52.6
2022-12-11T07:37:08.919Z,52.63
2022-12-11T07:38:13.004Z,52.65
2022-12-11T07:39:17.091Z,52.66
2022-12-11T07:40:21.153Z,52.62
2022-12-11T07:41:25.232Z,52.68
2022-12-11T07:42:29.315Z,52.67
2022-12-11T07:43:33.405Z,52.67
2022-12-11T07:44:37.494Z,52.71
2022-12-11T07:45:41.639Z,52.74
2022-12-11T07:46:45.742Z,52.76
2022-12-11T07:47:49.830Z,52.79
2022-12-11T07:48:53.891Z,52.78
2022-12-11T07:49:57.953Z,52.78
2022-12-11T07:51:02.022Z,52.83
2022-12-11T07:52:06.128Z,52.88
2022-12-11T07:53:10.208Z,53
2022-12-11T07:54:14.282Z,53.01
2022-12-11T07:55:18.374Z,53
2022-12-11T07:56:22.456Z,53.02
2022-12-11T07:57:26.542Z,53.05
2022-12-11T07:58:30.619Z,53.05
2022-12-11T07:59:34.714Z,53.09
2022-12-11T08:00:38.773Z,53.12
2022-12-11T08:01:43.035Z,53.11
2022-12-11T08:02:47.224Z,53.11
2022-12-11T08:03:51.301Z,53.14
2022-12-11T08:04:55.371Z,53.14
2022-12-11T08:05:59.448Z,53.1
2022-12-11T08:07:03.540Z,53.16
2022-12-11T08:08:07.728Z,53.16
2022-12-11T08:09:21.194Z,53.21
2022-12-11T08:10:25.600Z,53.2
2022-12-11T08:11:29.715Z,53.22
2022-12-11T08:12:33.835Z,53.25
2022-12-11T08:13:37.919Z,53.27
2022-12-11T08:14:41.994Z,53.27
2022-12-11T08:15:46.061Z,53.29
2022-12-11T08:16:50.449Z,53.26
2022-12-11T08:17:54.568Z,53.26
2022-12-11T08:18:58.646Z,53.29
2022-12-11T08:20:02.735Z,53.26
2022-12-11T08:21:06.812Z,53.28
2022-12-11T08:22:10.879Z,53.26
2022-12-11T08:23:14.964Z,53.26
2022-12-11T08:24:19.057Z,53.29
2022-12-11T08:25:23.121Z,53.28
2022-12-11T08:26:27.202Z,53.34
2022-12-11T08:27:31.273Z,53.33
2022-12-11T08:28:35.357Z,53.27
2022-12-11T08:29:39.416Z,53.34
2022-12-11T08:30:43.674Z,53.29
2022-12-11T08:31:47.761Z,53.3
2022-12-11T08:32:51.833Z,53.23
2022-12-11T08:33:56.011Z,53.33
2022-12-11T08:35:00.148Z,53.28
2022-12-11T08:36:04.242Z,53.32
2022-12-11T08:37:08.337Z,53.34
2022-12-11T08:38:12.511Z,53.31
2022-12-11T08:39:16.607Z,53.27
2022-12-11T08:40:20.697Z,53.32
2022-12-11T08:41:24.771Z,53.33
2022-12-11T08:42:28.849Z,53.5
2022-12-11T08:43:32.917Z,53.4
2022-12-11T08:44:37.003Z,53.3
2022-12-11T08:45:41.198Z,53.46
2022-12-11T08:46:45.286Z,53.55
2022-12-11T08:47:49.507Z,53.42
2022-12-11T08:48:53.631Z,53.44
2022-12-11T08:49:57.871Z,53.47
2022-12-11T08:51:01.966Z,53.49
2022-12-11T08:52:06.066Z,53.42
2022-12-11T08:53:10.169Z,53.45
2022-12-11T08:54:14.279Z,53.36
2022-12-11T08:55:18.371Z,53.48
2022-12-11T08:56:22.456Z,53.45
2022-12-11T08:57:29.275Z,53.49
2022-12-11T08:58:33.361Z,53.41
2022-12-11T08:59:37.455Z,53.51
2022-12-11T09:00:56.567Z,53.44
2022-12-11T09:02:04.336Z,53.69
2022-12-11T09:03:14.579Z,53.56
2022-12-11T09:04:27.911Z,53.56
2022-12-11T09:05:32.046Z,53.47
2022-12-11T09:06:41.476Z,53.4
2022-12-11T09:07:45.848Z,53.5
2022-12-11T09:08:54.692Z,53.51
2022-12-11T09:09:58.771Z,53.49
2022-12-11T09:29:23.699Z,53.68
2022-12-11T09:30:27.757Z,53.75
2022-12-11T09:31:59.202Z,53.88
2022-12-11T09:33:03.336Z,53.8
2022-12-11T09:34:07.428Z,53.74
2022-12-11T09:35:12.874Z,53.74
2022-12-11T09:36:17.160Z,53.95
2022-12-11T09:37:21.214Z,54.02
2022-12-11T09:38:25.281Z,54.11
2022-12-11T09:39:29.376Z,54.11
2022-12-11T09:40:33.452Z,54
2022-12-11T09:41:37.560Z,54.06
2022-12-11T09:42:41.655Z,54.05
2022-12-11T09:43:45.738Z,54.08
2022-12-11T09:44:49.843Z,54.07
2022-12-11T09:45:54.120Z,54.07
2022-12-11T09:46:58.387Z,54.16
2022-12-11T09:48:02.530Z,54.29
2022-12-11T09:49:06.601Z,54.44
2022-12-11T09:50:10.804Z,54.18
2022-12-11T09:51:14.893Z,54.58
2022-12-11T09:52:18.998Z,54.25
2022-12-11T09:53:23.086Z,54.13
2022-12-11T09:54:27.158Z,53.67
2022-12-11T09:55:31.249Z,53.89
2022-12-11T09:56:35.335Z,53.95
2022-12-11T09:57:39.400Z,53.85
2022-12-11T09:58:43.505Z,53.46
2022-12-11T09:59:47.693Z,52.5
2022-12-11T10:00:51.754Z,53.46
2022-12-11T10:01:55.913Z,52.7
2022-12-11T10:03:00.215Z,52.22
2022-12-11T10:04:04.304Z,52.8
2022-12-11T10:05:08.552Z,52.08
2022-12-11T10:06:12.756Z,51.97
2022-12-11T10:07:16.847Z,51.74
2022-12-11T10:08:21.157Z,52
2022-12-11T10:09:25.312Z,51.7
2022-12-11T10:10:29.394Z,51.68
2022-12-11T10:11:33.461Z,51.35
2022-12-11T10:12:37.547Z,51.39
2022-12-11T10:13:41.593Z,51.01
2022-12-11T10:14:45.876Z,51.47
2022-12-11T10:15:50.184Z,49.91
2022-12-11T10:16:54.324Z,48.02
2022-12-11T10:18:06.333Z,46.69
2022-12-11T10:19:10.414Z,47.33
2022-12-11T10:20:14.490Z,47.93
2022-12-11T10:21:18.556Z,47.64
2022-12-11T10:22:22.613Z,48.06
2022-12-11T10:23:26.718Z,47.37
2022-12-11T10:25:12.823Z,47.26
2022-12-11T10:26:17.015Z,47.13
2022-12-11T10:27:21.208Z,47.02
2022-12-11T10:28:25.283Z,47.08
2022-12-11T10:29:29.364Z,47.13
2022-12-11T10:30:36.505Z,47.03
2022-12-11T10:31:40.665Z,46.86
2022-12-11T10:32:44.737Z,47.02
2022-12-11T10:33:48.801Z,46.46
2022-12-11T10:34:52.863Z,46.56
2022-12-11T10:35:57.003Z,46.43
2022-12-11T10:37:02.821Z,46.34
2022-12-11T10:38:06.879Z,46.04
2022-12-11T10:39:10.950Z,46.15
2022-12-11T10:40:15.022Z,45.96
2022-12-11T10:41:19.092Z,45.9
2022-12-11T10:42:23.162Z,45.6
2022-12-11T10:43:27.207Z,45.28
2022-12-11T10:44:31.259Z,45.01
2022-12-11T10:45:35.336Z,44.38
2022-12-11T10:46:39.671Z,43.98
2022-12-11T10:47:43.748Z,44.91
2022-12-11T10:48:47.832Z,44.82
2022-12-11T10:49:51.908Z,46.27
2022-12-11T10:50:55.982Z,45.56
2022-12-11T10:52:00.085Z,46.09
2022-12-11T10:53:04.165Z,46.29
2022-12-11T10:54:09.450Z,45.93
2022-12-11T10:55:14.095Z,45.61
2022-12-11T10:56:18.208Z,45.87
2022-12-11T10:57:22.317Z,44.44
2022-12-11T10:58:26.383Z,45.25
2022-12-11T10:59:30.482Z,43.96
2022-12-11T11:00:34.568Z,45.03
2022-12-11T11:01:38.958Z,44.34
2022-12-11T11:02:43.292Z,44.97
2022-12-11T11:03:47.419Z,44.9
2022-12-11T11:04:51.484Z,44.56
2022-12-11T11:05:55.617Z,44.96
2022-12-11T11:06:59.706Z,44.61
2022-12-11T11:08:03.961Z,43.76
2022-12-11T11:09:08.037Z,44.17
2022-12-11T11:10:12.144Z,44.14
2022-12-11T11:11:16.216Z,44.21
2022-12-11T11:12:20.276Z,44.18
2022-12-11T11:13:24.362Z,43.48
2022-12-11T11:14:28.453Z,44.36
2022-12-11T11:15:32.556Z,44.37
2022-12-11T11:16:36.648Z,43.46
2022-12-11T11:17:56.277Z,44.23
2022-12-11T11:19:00.439Z,44.65
2022-12-11T11:20:04.522Z,43.67
2022-12-11T11:21:08.637Z,43.25
2022-12-11T11:22:12.711Z,42.98
2022-12-11T11:23:16.845Z,43.47
2022-12-11T11:24:20.954Z,43.1
2022-12-11T11:25:25.036Z,44.18
2022-12-11T11:27:14.152Z,44.02
2022-12-11T11:28:18.341Z,43.72
2022-12-11T11:29:22.426Z,43.66
2022-12-11T11:30:26.513Z,43.63
2022-12-11T11:31:30.772Z,43.65
2022-12-11T11:32:34.883Z,43.34
2022-12-11T11:33:38.975Z,42.99
2022-12-11T11:34:43.079Z,43.25
2022-12-11T11:35:47.800Z,43.03
2022-12-11T11:36:51.863Z,43.51
2022-12-11T11:37:55.950Z,43.43
2022-12-11T11:38:59.998Z,43.5
2022-12-11T11:40:04.089Z,44.83
2022-12-11T11:41:16.325Z,44.22
2022-12-11T11:42:20.396Z,44.83
2022-12-11T11:43:24.488Z,45.03
2022-12-11T11:44:28.556Z,45.47
2022-12-11T11:45:32.649Z,45.4
2022-12-11T11:46:36.978Z,45.71
2022-12-11T11:47:41.081Z,45.44
2022-12-11T11:48:45.171Z,45.73
2022-12-11T11:49:49.224Z,45.36
2022-12-11T11:50:53.322Z,45.46
2022-12-11T11:51:57.395Z,45.51
2022-12-11T11:53:01.477Z,45.54
2022-12-11T11:54:05.564Z,45.07
2022-12-11T11:55:10.502Z,45.33
2022-12-11T11:56:14.822Z,45.67
2022-12-11T11:57:18.907Z,45.78
2022-12-11T11:58:23.015Z,45.72
2022-12-11T11:59:27.118Z,46.12
2022-12-11T12:00:35.735Z,46.14
2022-12-11T12:01:39.835Z,45.65
2022-12-11T12:02:44.076Z,45.62
2022-12-11T12:03:48.179Z,45.81
2022-12-11T12:04:52.288Z,46.28
2022-12-11T12:05:56.361Z,45.86
2022-12-11T12:07:00.432Z,46.03
2022-12-11T12:08:04.703Z,45.98
2022-12-11T12:09:08.789Z,46.1
2022-12-11T12:10:13.297Z,46.15
2022-12-11T12:11:17.444Z,46.06
2022-12-11T12:12:34.727Z,46.2
2022-12-11T12:13:54.234Z,46.13
2022-12-11T12:14:58.291Z,46.23
2022-12-11T12:16:02.604Z,46.11
2022-12-11T12:17:06.934Z,45.9
2022-12-11T12:18:13.329Z,46.11
2022-12-11T12:19:17.396Z,45.88
2022-12-11T12:20:21.462Z,45.75
2022-12-11T12:21:25.530Z,45.96
2022-12-11T12:22:29.603Z,45.73
2022-12-11T12:23:38.554Z,45.71
2022-12-11T12:24:42.602Z,45.62
2022-12-11T12:25:46.780Z,45.42
2022-12-11T12:26:50.861Z,45.67
2022-12-11T12:27:55.374Z,45.54
2022-12-11T12:28:59.441Z,45.29
2022-12-11T12:30:03.522Z,45.41
2022-12-11T12:31:07.872Z,45.22
2022-12-11T12:32:11.986Z,45.12
2022-12-11T12:33:16.123Z,45.14
2022-12-11T12:34:20.200Z,45.14
2022-12-11T12:35:24.254Z,44.96
2022-12-11T12:36:28.317Z,44.47
2022-12-11T12:37:32.419Z,43.98
2022-12-11T12:38:36.513Z,43.82
2022-12-11T12:39:40.594Z,43.72
2022-12-11T12:40:44.717Z,43.9
2022-12-11T12:41:48.819Z,43.8
2022-12-11T12:42:52.921Z,43.88
2022-12-11T12:43:57.293Z,44.13
2022-12-11T12:45:01.433Z,44.18
2022-12-11T12:46:05.777Z,44.37
2022-12-11T12:47:09.891Z,44.53
2022-12-11T12:48:14.132Z,44.61
2022-12-11T12:49:18.220Z,44.85
2022-12-11T12:50:22.361Z,44.93
2022-12-11T12:51:26.426Z,45.09
2022-12-11T12:52:30.489Z,44.92
2022-12-11T12:53:34.564Z,44.93
2022-12-11T12:54:38.684Z,45
2022-12-11T12:55:42.751Z,44.94
2022-12-11T12:56:46.808Z,44.84
2022-12-11T12:57:50.870Z,44.86
2022-12-11T12:58:54.967Z,44.81
2022-12-11T12:59:59.026Z,44.81
2022-12-11T13:01:03.290Z,44.7
2022-12-11T13:02:07.585Z,44.68
2022-12-11T13:03:11.717Z,44.74
2022-12-11T13:04:57.125Z,44.7
2022-12-11T13:06:01.233Z,44.59
2022-12-11T13:07:05.292Z,44.55
2022-12-11T13:08:09.520Z,44.54
2022-12-11T13:09:13.662Z,44.46
2022-12-11T13:10:17.746Z,44.48
2022-12-11T13:11:21.818Z,44.46
2022-12-11T13:12:25.886Z,44.54
2022-12-11T13:13:29.967Z,44.59
2022-12-11T13:14:34.041Z,44.62
2022-12-11T13:15:38.099Z,44.84
2022-12-11T13:16:42.396Z,44.88
2022-12-11T13:17:46.541Z,44.92
2022-12-11T13:18:50.606Z,45.03
2022-12-11T13:19:54.669Z,45.21
2022-12-11T13:20:58.749Z,45.39
2022-12-11T13:22:03.478Z,45.59
2022-12-11T13:23:07.752Z,45.69
2022-12-11T13:24:13.105Z,45.63
2022-12-11T13:25:26.015Z,45.71
2022-12-11T13:26:30.424Z,45.76
2022-12-11T13:27:34.515Z,45.66
2022-12-11T13:28:41.485Z,45.68
2022-12-11T13:29:45.912Z,45.62
2022-12-11T13:30:58.208Z,45.52
2022-12-11T13:32:02.578Z,45.51
2022-12-11T13:33:06.728Z,45.46
2022-12-11T13:34:10.795Z,45.34
2022-12-11T13:35:15.437Z,45.35
2022-12-11T13:36:26.175Z,45.43
2022-12-11T13:37:30.307Z,45.37
2022-12-11T13:38:34.378Z,45.34
2022-12-11T13:39:38.429Z,45.27
2022-12-11T13:40:42.613Z,45.28
2022-12-11T13:41:46.775Z,45.21
2022-12-11T13:42:50.860Z,45.3
2022-12-11T13:43:54.932Z,45.28
2022-12-11T13:44:59.013Z,45.19
2022-12-11T13:46:03.381Z,45.15
2022-12-11T13:47:07.531Z,45.13
2022-12-11T13:48:17.949Z,45.17
2022-12-11T13:49:22.065Z,45.12
2022-12-11T13:50:26.133Z,45.19
2022-12-11T13:51:30.200Z,45.41
2022-12-11T13:52:34.279Z,45.5
2022-12-11T13:53:38.444Z,45.56
2022-12-11T13:54:46.496Z,45.6
2022-12-11T13:55:50.612Z,45.78
2022-12-11T13:56:54.670Z,45.87
2022-12-11T13:57:58.732Z,45.89
2022-12-11T13:59:02.811Z,45.98
2022-12-11T14:00:06.981Z,46.03
2022-12-11T14:01:11.405Z,45.99
2022-12-11T14:02:15.732Z,45.99
2022-12-11T14:03:19.843Z,45.94
2022-12-11T14:04:23.910Z,45.97
2022-12-11T14:05:27.979Z,45.97
2022-12-11T14:06:32.062Z,45.91
2022-12-11T14:07:36.139Z,45.96
2022-12-11T14:08:40.204Z,45.9
2022-12-11T14:09:45.362Z,45.81
2022-12-11T14:10:49.445Z,45.72
2022-12-11T14:11:58.685Z,45.57
2022-12-11T14:13:02.778Z,45.57